createdAt,value
2022-12-19T00:04:33.436Z,47.7
2022-12-19T00:10:03.532Z,48.5
2022-12-19T00:15:22.485Z,48
2022-12-19T00:20:40.944Z,47.8
2022-12-19T00:26:02.010Z,48
2022-12-19T00:31:21.564Z,47.9
2022-12-19T00:36:39.751Z,47.6
2022-12-19T00:42:01.232Z,48.5
2022-12-19T00:47:20.144Z,47.8
2022-12-19T00:52:38.381Z,48.5
2022-12-19T00:58:01.158Z,48.2
2022-12-19T01:03:19.927Z,47.9
2022-12-19T01:08:38.220Z,48.2
2022-12-19T01:13:56.687Z,48.5
2022-12-19T01:19:15.557Z,48.7
2022-12-19T01:24:34.095Z,47.9
2022-12-19T01:29:53.448Z,48.9
2022-12-19T01:35:23.028Z,48.4
2022-12-19T01:40:41.221Z,48.1
2022-12-19T01:45:59.589Z,48.4
2022-12-19T01:51:18.445Z,48
2022-12-19T01:56:36.932Z,48
2022-12-19T02:01:55.579Z,47.6
2022-12-19T02:07:17.215Z,48
2022-12-19T02:12:35.971Z,48.2
2022-12-19T02:17:54.441Z,48.7
2022-12-19T02:23:14.449Z,48.4
2022-12-19T02:28:32.653Z,48.8
2022-12-19T02:33:56.338Z,48.5
2022-12-19T02:39:15.091Z,48.3
2022-12-19T02:44:36.657Z,49.2
2022-12-19T02:49:55.131Z,47.7
2022-12-19T02:55:13.761Z,48.5
2022-12-19T03:00:32.556Z,47.7
2022-12-19T03:05:51.034Z,48.5
2022-12-19T03:11:09.932Z,48.6
2022-12-19T03:16:28.332Z,48
2022-12-19T03:21:46.871Z,48.7
2022-12-19T03:27:05.520Z,48
2022-12-19T03:32:23.930Z,47.8
2022-12-19T03:37:42.410Z,48.6
2022-12-19T03:43:00.918Z,48.9
2022-12-19T03:48:18.832Z,48.5
2022-12-19T03:53:37.318Z,48
2022-12-19T03:58:55.979Z,48.9
2022-12-19T04:04:14.250Z,48.3
2022-12-19T04:09:33.720Z,48.3
2022-12-19T04:14:52.578Z,49.1
2022-12-19T04:20:11.138Z,48.1
2022-12-19T04:25:30.167Z,49.1
2022-12-19T04:30:48.850Z,48.7
2022-12-19T04:36:07.102Z,49.1
2022-12-19T04:41:25.299Z,48.5
2022-12-19T04:46:44.266Z,48.4
2022-12-19T04:52:02.554Z,48.8
2022-12-19T04:57:20.777Z,48.2
2022-12-19T05:02:40.313Z,48.3
2022-12-19T05:07:58.858Z,48.3
2022-12-19T05:13:07.442Z,49.1
2022-12-19T05:18:26.040Z,48.4
2022-12-19T05:23:44.582Z,48.3
2022-12-19T05:29:02.785Z,49
2022-12-19T05:34:21.643Z,49.9
2022-12-19T05:39:41.216Z,50.4
2022-12-19T05:44:59.400Z,51.7
2022-12-19T05:50:18.353Z,51.6
2022-12-19T05:55:36.582Z,51.6
2022-12-19T06:01:01.113Z,51.7
2022-12-19T06:06:19.656Z,52
2022-12-19T06:11:37.911Z,52
2022-12-19T06:16:56.580Z,51.3
2022-12-19T06:22:14.839Z,52.2
2022-12-19T06:27:33.257Z,51.4
2022-12-19T06:32:52.012Z,52.1
2022-12-19T06:38:11.282Z,51.7
2022-12-19T06:43:29.756Z,52
2022-12-19T06:48:48.517Z,52.3
2022-12-19T06:53:51.959Z,51.9
2022-12-19T06:59:10.704Z,51.8
2022-12-19T07:04:29.481Z,52.4
2022-12-19T07:09:47.968Z,51.6
2022-12-19T07:15:06.776Z,52.9
2022-12-19T07:20:25.774Z,52.4
2022-12-19T07:25:45.018Z,51.4
2022-12-19T07:31:03.745Z,52.2
2022-12-19T07:36:22.482Z,51.7
2022-12-19T07:41:41.143Z,51.7
2022-12-19T07:46:59.686Z,52.3
2022-12-19T07:52:02.243Z,52.7
2022-12-19T07:57:21.351Z,51.9
2022-12-19T08:02:40.591Z,52.3
2022-12-19T08:07:59.134Z,52.1
2022-12-19T08:13:18.122Z,51.6
2022-12-19T08:18:36.614Z,52.1
2022-12-19T08:23:55.117Z,52.7
2022-12-19T08:29:13.786Z,51.8
2022-12-19T08:34:32.311Z,52.1
2022-12-19T08:39:50.815Z,51.6
2022-12-19T08:45:09.631Z,51.2
2022-12-19T08:50:28.391Z,51.7
2022-12-19T08:55:31.890Z,51.1
2022-12-19T09:01:05.976Z,51.7
2022-12-19T09:06:24.338Z,50.9
2022-12-19T09:11:27.883Z,50.4
2022-12-19T09:16:47.247Z,51.4
2022-12-19T09:22:05.757Z,50.4
2022-12-19T09:27:24.569Z,51.2
2022-12-19T09:32:43.822Z,50.1
2022-12-19T09:38:02.337Z,50.6
2022-12-19T09:43:20.550Z,50.7
2022-12-19T09:48:39.247Z,50.3
2022-12-19T09:53:58.035Z,51.1
2022-12-19T09:59:15.961Z,50.2
2022-12-19T10:04:34.647Z,50.8
2022-12-19T10:12:57.062Z,49.6
2022-12-19T10:18:18.146Z,49.6
2022-12-19T10:23:36.949Z,49.7
2022-12-19T10:28:55.431Z,49.4
2022-12-19T10:34:17.430Z,49.1
2022-12-19T10:39:36.414Z,49.7
2022-12-19T10:44:54.397Z,48.6
2022-12-19T10:50:12.867Z,48.6
2022-12-19T10:55:15.830Z,49.2
2022-12-19T11:00:34.598Z,49
2022-12-19T11:05:59.096Z,48.5
2022-12-19T11:30:24.273Z,48.9
2022-12-19T11:36:42.355Z,48.5
2022-12-19T11:42:00.828Z,48.1
2022-12-19T11:47:19.443Z,47.4
2022-12-19T11:53:16.768Z,46
2022-12-19T11:58:39.575Z,45.8
2022-12-19T12:04:04.328Z,45.3
2022-12-19T12:38:26.802Z,43.3
2022-12-19T12:43:45.437Z,43.3
2022-12-19T12:49:03.945Z,43.3
2022-12-19T12:54:22.746Z,42.2
2022-12-19T12:59:41.205Z,43.4
2022-12-19T13:04:59.449Z,43.5
2022-12-19T13:10:17.937Z,43.9
2022-12-19T13:15:36.684Z,44.6
2022-12-19T13:20:55.189Z,42.7
2022-12-19T13:26:20.328Z,43.2
2022-12-19T13:31:38.898Z,42.9
2022-12-19T13:40:13.524Z,43.6
2022-12-19T13:45:32.448Z,44.1
2022-12-19T13:50:50.652Z,43.6
2022-12-19T13:56:08.873Z,44.6
2022-12-19T14:01:27.502Z,44
2022-12-19T14:06:46.035Z,44.1
2022-12-19T14:14:12.573Z,44.3
2022-12-19T14:19:33.465Z,45.2
2022-12-19T14:24:51.986Z,45.1
2022-12-19T14:30:33.632Z,45.9
2022-12-19T14:36:25.487Z,46.2
2022-12-19T14:41:44.071Z,45.7
2022-12-19T15:01:14.401Z,45.9
2022-12-19T15:07:12.985Z,45.9
2022-12-19T15:15:00.665Z,46.4
2022-12-19T15:20:19.227Z,46.5
2022-12-19T15:26:07.561Z,46.5
2022-12-19T15:31:26.085Z,46.1
2022-12-19T15:36:44.377Z,45.7
2022-12-19T15:42:03.178Z,46.1
2022-12-19T15:47:21.687Z,46.7
2022-12-19T15:52:40.032Z,46.6
2022-12-19T15:57:58.505Z,46.8
2022-12-19T16:03:33.218Z,46.1
2022-12-19T16:08:51.503Z,46.8
2022-12-19T16:14:09.975Z,46.8
2022-12-19T16:19:29.464Z,46.4
2022-12-19T16:24:47.987Z,46.5
2022-12-19T16:30:06.734Z,47
2022-12-19T16:36:06.791Z,46.5
2022-12-19T16:41:25.723Z,46.3
2022-12-19T16:46:52.131Z,46.1
2022-12-19T16:52:10.895Z,46.4
2022-12-19T16:57:29.700Z,46
2022-12-19T17:02:49.027Z,46.2
2022-12-19T17:08:07.684Z,46.9
2022-12-19T17:13:26.191Z,46.9
2022-12-19T17:18:29.045Z,46.9
2022-12-19T17:23:47.589Z,46.3
2022-12-19T17:29:06.103Z,47.1
2022-12-19T17:34:24.739Z,46.3
2022-12-19T17:39:27.631Z,47
2022-12-19T17:44:45.809Z,46.1
2022-12-19T17:50:04.074Z,46.9
2022-12-19T17:55:22.277Z,47.2
2022-12-19T18:00:41.484Z,46.4
2022-12-19T18:05:59.959Z,47.3
2022-12-19T18:11:18.467Z,47.4
2022-12-19T18:16:36.925Z,47.5
2022-12-19T18:21:55.382Z,47.2
2022-12-19T18:27:13.322Z,47
2022-12-19T18:32:31.578Z,47.9
2022-12-19T18:37:50.325Z,47.5
2022-12-19T18:43:08.266Z,48
2022-12-19T18:48:26.784Z,47.2
2022-12-19T18:53:45.524Z,47.4
2022-12-19T18:59:03.772Z,48
2022-12-19T19:04:22.108Z,48
2022-12-19T19:09:40.610Z,47.9
2022-12-19T19:14:43.777Z,47.9
2022-12-19T19:19:47.010Z,48.4
2022-12-19T19:24:49.348Z,48.2
2022-12-19T19:30:07.595Z,48.4
2022-12-19T19:35:26.334Z,48.3
2022-12-19T19:40:44.775Z,48.2
2022-12-19T19:46:03.616Z,47.9
2022-12-19T19:51:06.595Z,48.5
2022-12-19T19:56:09.213Z,47.6
2022-12-19T20:01:27.707Z,47.2
2022-12-19T20:06:46.266Z,47.7
2022-12-19T20:12:05.028Z,47.8
2022-12-19T20:17:23.516Z,47.6
2022-12-19T20:22:41.987Z,47.6
2022-12-19T20:28:00.180Z,47
2022-12-19T20:33:19.002Z,47.2
2022-12-19T20:38:37.812Z,48
2022-12-19T20:43:55.743Z,47.1
2022-12-19T20:49:14.341Z,47.7
2022-12-19T20:54:32.507Z,48.1
2022-12-19T20:59:51.288Z,47
2022-12-19T21:05:10.061Z,47
2022-12-19T21:10:12.675Z,48
2022-12-19T21:15:30.863Z,47.7
2022-12-19T21:20:49.120Z,48.1
2022-12-19T21:26:07.619Z,48.6
2022-12-19T21:31:26.344Z,48.5
2022-12-19T21:36:29.071Z,48.3
2022-12-19T21:41:47.399Z,48.4
2022-12-19T21:47:06.517Z,48.5
2022-12-19T21:52:25.383Z,49.3
2022-12-19T21:57:44.246Z,48.4
2022-12-19T22:03:16.118Z,48.6
2022-12-19T22:08:34.747Z,49.3
2022-12-19T22:13:53.233Z,49.2
2022-12-19T22:19:12.009Z,49.1
2022-12-19T22:24:30.827Z,48.4
2022-12-19T22:29:49.289Z,48.5
2022-12-19T22:35:07.504Z,49.1
2022-12-19T22:40:25.725Z,48.7
2022-12-19T22:45:43.831Z,49.2
2022-12-19T22:51:02.905Z,48.5
2022-12-19T22:56:21.421Z,48.3
2022-12-19T23:01:40.176Z,48.3
2022-12-19T23:06:58.567Z,49
2022-12-19T23:12:17.347Z,48.8
2022-12-19T23:17:35.851Z,48.9
2022-12-19T23:22:54.624Z,48
2022-12-19T23:28:12.863Z,48.2
2022-12-19T23:33:31.061Z,48.2
2022-12-19T23:38:49.555Z,48.8
2022-12-19T23:44:08.145Z,48.8
2022-12-19T23:49:26.609Z,48.2
2022-12-19T23:54:45.147Z,48.3
